sensor_id;sensor_type;location;lat;lon;timestamp;P1;P2;P0
40371;PMS5003;28564;53.346;-6.554;2023-09-12T00:00:08;0;0;
40371;PMS5003;28564;53.346;-6.554;2023-09-12T00:02:36;1;1;
40371;PMS5003;28564;53.346;-6.554;2023-09-12T00:05:03;0;0;
40371;PMS5003;28564;53.346;-6.554;2023-09-12T00:07:31;0;0;
40371;PMS5003;28564;53.346;-6.554;2023-09-12T00:09:59;0;0;
40371;PMS5003;28564;53.346;-6.554;2023-09-12T00:12:26;4;1;
40371;PMS5003;28564;53.346;-6.554;2023-09-12T00:14:53;2;2;
40371;PMS5003;28564;53.346;-6.554;2023-09-12T00:17:20;3;2;
40371;PMS5003;28564;53.346;-6.554;2023-09-12T00:19:47;3;3;
40371;PMS5003;28564;53.346;-6.554;2023-09-12T00:22:14;1;1;
40371;PMS5003;28564;53.346;-6.554;2023-09-12T00:24:42;2;2;
40371;PMS5003;28564;53.346;-6.554;2023-09-12T00:27:09;2;2;
40371;PMS5003;28564;53.346;-6.554;2023-09-12T00:29:36;1;1;
40371;PMS5003;28564;53.346;-6.554;2023-09-12T00:32:03;3;1;
40371;PMS5003;28564;53.346;-6.554;2023-09-12T00:34:31;1;1;
40371;PMS5003;28564;53.346;-6.554;2023-09-12T00:36:59;3;3;
40371;PMS5003;28564;53.346;-6.554;2023-09-12T00:39:26;1;1;
40371;PMS5003;28564;53.346;-6.554;2023-09-12T00:41:53;1;1;
40371;PMS5003;28564;53.346;-6.554;2023-09-12T00:44:20;2;2;
40371;PMS5003;28564;53.346;-6.554;2023-09-12T00:46:47;2;2;
40371;PMS5003;28564;53.346;-6.554;2023-09-12T00:49:16;1;1;
40371;PMS5003;28564;53.346;-6.554;2023-09-12T00:51:44;3;1;
40371;PMS5003;28564;53.346;-6.554;2023-09-12T00:54:12;2;2;
40371;PMS5003;28564;53.346;-6.554;2023-09-12T00:56:39;1;1;
40371;PMS5003;28564;53.346;-6.554;2023-09-12T00:59:06;2;2;
40371;PMS5003;28564;53.346;-6.554;2023-09-12T01:01:35;0;0;
40371;PMS5003;28564;53.346;-6.554;2023-09-12T01:04:02;1;0;
40371;PMS5003;28564;53.346;-6.554;2023-09-12T01:06:30;0;0;
40371;PMS5003;28564;53.346;-6.554;2023-09-12T01:09:00;0;0;
40371;PMS5003;28564;53.346;-6.554;2023-09-12T01:11:28;1;0;
40371;PMS5003;28564;53.346;-6.554;2023-09-12T01:13:55;0;0;
40371;PMS5003;28564;53.346;-6.554;2023-09-12T01:16:23;1;1;
40371;PMS5003;28564;53.346;-6.554;2023-09-12T01:18:50;2;1;
40371;PMS5003;28564;53.346;-6.554;2023-09-12T01:21:31;1;1;
40371;PMS5003;28564;53.346;-6.554;2023-09-12T01:24:10;1;1;
40371;PMS5003;28564;53.346;-6.554;2023-09-12T01:26:55;0;0;
40371;PMS5003;28564;53.346;-6.554;2023-09-12T01:29:30;0;0;
40371;PMS5003;28564;53.346;-6.554;2023-09-12T01:31:58;0;0;
40371;PMS5003;28564;53.346;-6.554;2023-09-12T01:34:26;1;1;
40371;PMS5003;28564;53.346;-6.554;2023-09-12T01:36:53;1;1;
40371;PMS5003;28564;53.346;-6.554;2023-09-12T01:39:21;1;1;
40371;PMS5003;28564;53.346;-6.554;2023-09-12T01:41:48;1;1;
40371;PMS5003;28564;53.346;-6.554;2023-09-12T01:44:18;2;2;
40371;PMS5003;28564;53.346;-6.554;2023-09-12T01:46:51;0;0;
40371;PMS5003;28564;53.346;-6.554;2023-09-12T01:49:20;1;1;
40371;PMS5003;28564;53.346;-6.554;2023-09-12T01:51:50;1;1;
40371;PMS5003;28564;53.346;-6.554;2023-09-12T01:54:18;1;1;
40371;PMS5003;28564;53.346;-6.554;2023-09-12T01:56:46;3;2;
40371;PMS5003;28564;53.346;-6.554;2023-09-12T01:59:19;2;2;
40371;PMS5003;28564;53.346;-6.554;2023-09-12T02:01:47;3;3;
40371;PMS5003;28564;53.346;-6.554;2023-09-12T02:04:14;3;3;
40371;PMS5003;28564;53.346;-6.554;2023-09-12T02:06:41;3;3;
40371;PMS5003;28564;53.346;-6.554;2023-09-12T02:09:08;2;2;
40371;PMS5003;28564;53.346;-6.554;2023-09-12T02:11:35;2;2;
40371;PMS5003;28564;53.346;-6.554;2023-09-12T02:14:02;3;3;
40371;PMS5003;28564;53.346;-6.554;2023-09-12T02:16:30;6;4;
40371;PMS5003;28564;53.346;-6.554;2023-09-12T02:18:57;4;4;
40371;PMS5003;28564;53.346;-6.554;2023-09-12T02:21:25;3;3;
40371;PMS5003;28564;53.346;-6.554;2023-09-12T02:23:52;3;3;
40371;PMS5003;28564;53.346;-6.554;2023-09-12T02:26:19;3;3;
40371;PMS5003;28564;53.346;-6.554;2023-09-12T02:28:46;4;3;
40371;PMS5003;28564;53.346;-6.554;2023-09-12T02:31:13;3;3;
40371;PMS5003;28564;53.346;-6.554;2023-09-12T02:33:40;4;4;
40371;PMS5003;28564;53.346;-6.554;2023-09-12T02:36:07;2;2;
40371;PMS5003;28564;53.346;-6.554;2023-09-12T02:38:34;3;3;
40371;PMS5003;28564;53.346;-6.554;2023-09-12T02:41:01;2;2;
40371;PMS5003;28564;53.346;-6.554;2023-09-12T02:43:29;2;2;
40371;PMS5003;28564;53.346;-6.554;2023-09-12T02:45:56;2;2;
40371;PMS5003;28564;53.346;-6.554;2023-09-12T02:48:23;2;2;
40371;PMS5003;28564;53.346;-6.554;2023-09-12T02:50:50;3;2;
40371;PMS5003;28564;53.346;-6.554;2023-09-12T02:53:17;1;1;
40371;PMS5003;28564;53.346;-6.554;2023-09-12T02:55:44;2;2;
40371;PMS5003;28564;53.346;-6.554;2023-09-12T02:58:11;1;1;
40371;PMS5003;28564;53.346;-6.554;2023-09-12T03:00:38;4;3;
40371;PMS5003;28564;53.346;-6.554;2023-09-12T03:03:05;3;3;
40371;PMS5003;28564;53.346;-6.554;2023-09-12T03:05:32;2;2;
40371;PMS5003;28564;53.346;-6.554;2023-09-12T03:07:59;2;2;
40371;PMS5003;28564;53.346;-6.554;2023-09-12T03:10:27;2;2;
40371;PMS5003;28564;53.346;-6.554;2023-09-12T03:12:54;2;2;
40371;PMS5003;28564;53.346;-6.554;2023-09-12T03:15:21;1;1;
40371;PMS5003;28564;53.346;-6.554;2023-09-12T03:17:48;1;1;
40371;PMS5003;28564;53.346;-6.554;2023-09-12T03:20:15;2;2;
40371;PMS5003;28564;53.346;-6.554;2023-09-12T03:22:42;3;2;
40371;PMS5003;28564;53.346;-6.554;2023-09-12T03:25:09;0;0;
40371;PMS5003;28564;53.346;-6.554;2023-09-12T03:27:36;2;2;
40371;PMS5003;28564;53.346;-6.554;2023-09-12T03:30:04;1;1;
40371;PMS5003;28564;53.346;-6.554;2023-09-12T03:32:32;2;2;
40371;PMS5003;28564;53.346;-6.554;2023-09-12T03:34:59;2;2;
40371;PMS5003;28564;53.346;-6.554;2023-09-12T03:37:26;2;2;
40371;PMS5003;28564;53.346;-6.554;2023-09-12T03:39:53;2;2;
40371;PMS5003;28564;53.346;-6.554;2023-09-12T03:42:21;2;2;
40371;PMS5003;28564;53.346;-6.554;2023-09-12T03:44:47;3;3;
40371;PMS5003;28564;53.346;-6.554;2023-09-12T03:47:15;2;2;
40371;PMS5003;28564;53.346;-6.554;2023-09-12T03:49:42;3;3;
40371;PMS5003;28564;53.346;-6.554;2023-09-12T03:52:09;3;3;
40371;PMS5003;28564;53.346;-6.554;2023-09-12T03:54:36;2;2;
40371;PMS5003;28564;53.346;-6.554;2023-09-12T03:57:03;2;2;
40371;PMS5003;28564;53.346;-6.554;2023-09-12T03:59:31;3;3;
40371;PMS5003;28564;53.346;-6.554;2023-09-12T04:01:58;3;3;
40371;PMS5003;28564;53.346;-6.554;2023-09-12T04:04:28;2;2;
40371;PMS5003;28564;53.346;-6.554;2023-09-12T04:06:55;3;3;
40371;PMS5003;28564;53.346;-6.554;2023-09-12T04:09:22;4;4;
40371;PMS5003;28564;53.346;-6.554;2023-09-12T04:11:49;4;3;
40371;PMS5003;28564;53.346;-6.554;2023-09-12T04:14:16;3;2;
40371;PMS5003;28564;53.346;-6.554;2023-09-12T04:16:43;1;1;
40371;PMS5003;28564;53.346;-6.554;2023-09-12T04:19:10;3;3;
40371;PMS5003;28564;53.346;-6.554;2023-09-12T04:21:37;2;2;
40371;PMS5003;28564;53.346;-6.554;2023-09-12T04:24:05;0;0;
40371;PMS5003;28564;53.346;-6.554;2023-09-12T04:26:33;0;0;
40371;PMS5003;28564;53.346;-6.554;2023-09-12T04:29:00;0;0;
40371;PMS5003;28564;53.346;-6.554;2023-09-12T04:31:28;1;0;
40371;PMS5003;28564;53.346;-6.554;2023-09-12T04:33:55;0;0;
40371;PMS5003;28564;53.346;-6.554;2023-09-12T04:36:22;2;0;
40371;PMS5003;28564;53.346;-6.554;2023-09-12T04:38:50;1;1;
40371;PMS5003;28564;53.346;-6.554;2023-09-12T04:41:17;1;1;
40371;PMS5003;28564;53.346;-6.554;2023-09-12T04:43:44;1;1;
40371;PMS5003;28564;53.346;-6.554;2023-09-12T04:46:12;2;0;
40371;PMS5003;28564;53.346;-6.554;2023-09-12T04:48:39;0;0;
40371;PMS5003;28564;53.346;-6.554;2023-09-12T04:51:06;1;1;
40371;PMS5003;28564;53.346;-6.554;2023-09-12T04:53:33;0;0;
40371;PMS5003;28564;53.346;-6.554;2023-09-12T04:56:00;3;1;
40371;PMS5003;28564;53.346;-6.554;2023-09-12T04:58:28;1;0;
40371;PMS5003;28564;53.346;-6.554;2023-09-12T05:00:55;2;0;
40371;PMS5003;28564;53.346;-6.554;2023-09-12T05:03:22;1;1;
40371;PMS5003;28564;53.346;-6.554;2023-09-12T05:05:50;0;0;
40371;PMS5003;28564;53.346;-6.554;2023-09-12T05:08:17;0;0;
40371;PMS5003;28564;53.346;-6.554;2023-09-12T05:10:44;1;1;
40371;PMS5003;28564;53.346;-6.554;2023-09-12T05:13:11;1;0;
40371;PMS5003;28564;53.346;-6.554;2023-09-12T05:15:38;1;1;
40371;PMS5003;28564;53.346;-6.554;2023-09-12T05:18:07;0;0;
40371;PMS5003;28564;53.346;-6.554;2023-09-12T05:20:34;0;0;
40371;PMS5003;28564;53.346;-6.554;2023-09-12T05:23:01;0;0;
40371;PMS5003;28564;53.346;-6.554;2023-09-12T05:25:28;1;1;
40371;PMS5003;28564;53.346;-6.554;2023-09-12T05:27:55;0;0;
40371;PMS5003;28564;53.346;-6.554;2023-09-12T05:30:23;1;1;
40371;PMS5003;28564;53.346;-6.554;2023-09-12T05:32:51;1;1;
40371;PMS5003;28564;53.346;-6.554;2023-09-12T05:35:18;1;1;
40371;PMS5003;28564;53.346;-6.554;2023-09-12T05:37:45;0;0;
40371;PMS5003;28564;53.346;-6.554;2023-09-12T05:40:13;0;0;
40371;PMS5003;28564;53.346;-6.554;2023-09-12T05:42:40;1;0;
40371;PMS5003;28564;53.346;-6.554;2023-09-12T05:45:07;1;0;
40371;PMS5003;28564;53.346;-6.554;2023-09-12T05:47:35;0;0;
40371;PMS5003;28564;53.346;-6.554;2023-09-12T05:50:02;0;0;
40371;PMS5003;28564;53.346;-6.554;2023-09-12T05:52:30;1;1;
40371;PMS5003;28564;53.346;-6.554;2023-09-12T05:54:57;0;0;
40371;PMS5003;28564;53.346;-6.554;2023-09-12T05:57:24;0;0;
40371;PMS5003;28564;53.346;-6.554;2023-09-12T05:59:51;2;1;
40371;PMS5003;28564;53.346;-6.554;2023-09-12T06:02:18;0;0;
40371;PMS5003;28564;53.346;-6.554;2023-09-12T06:04:45;1;1;
40371;PMS5003;28564;53.346;-6.554;2023-09-12T06:07:12;1;1;
40371;PMS5003;28564;53.346;-6.554;2023-09-12T06:09:40;3;2;
40371;PMS5003;28564;53.346;-6.554;2023-09-12T06:12:07;1;1;
40371;PMS5003;28564;53.346;-6.554;2023-09-12T06:14:35;2;2;
40371;PMS5003;28564;53.346;-6.554;2023-09-12T06:17:02;1;1;
40371;PMS5003;28564;53.346;-6.554;2023-09-12T06:19:30;1;1;
40371;PMS5003;28564;53.346;-6.554;2023-09-12T06:21:57;3;2;
40371;PMS5003;28564;53.346;-6.554;2023-09-12T06:24:25;4;1;
40371;PMS5003;28564;53.346;-6.554;2023-09-12T06:26:52;2;1;
40371;PMS5003;28564;53.346;-6.554;2023-09-12T06:29:20;1;1;
40371;PMS5003;28564;53.346;-6.554;2023-09-12T06:31:46;2;1;
40371;PMS5003;28564;53.346;-6.554;2023-09-12T06:34:14;2;2;
40371;PMS5003;28564;53.346;-6.554;2023-09-12T06:36:41;3;2;
40371;PMS5003;28564;53.346;-6.554;2023-09-12T06:39:08;5;4;
40371;PMS5003;28564;53.346;-6.554;2023-09-12T06:41:35;7;7;
40371;PMS5003;28564;53.346;-6.554;2023-09-12T06:44:02;14;14;
40371;PMS5003;28564;53.346;-6.554;2023-09-12T06:46:29;19;19;
40371;PMS5003;28564;53.346;-6.554;2023-09-12T06:48:57;18;17;
40371;PMS5003;28564;53.346;-6.554;2023-09-12T06:51:25;14;14;
40371;PMS5003;28564;53.346;-6.554;2023-09-12T06:53:52;13;10;
40371;PMS5003;28564;53.346;-6.554;2023-09-12T06:56:19;8;8;
40371;PMS5003;28564;53.346;-6.554;2023-09-12T06:58:46;5;5;
40371;PMS5003;28564;53.346;-6.554;2023-09-12T07:01:13;3;3;
40371;PMS5003;28564;53.346;-6.554;2023-09-12T07:03:40;2;0;
40371;PMS5003;28564;53.346;-6.554;2023-09-12T07:06:08;0;0;
40371;PMS5003;28564;53.346;-6.554;2023-09-12T07:08:35;1;1;
40371;PMS5003;28564;53.346;-6.554;2023-09-12T07:11:04;1;1;
40371;PMS5003;28564;53.346;-6.554;2023-09-12T07:13:31;1;0;
40371;PMS5003;28564;53.346;-6.554;2023-09-12T07:15:59;0;0;
40371;PMS5003;28564;53.346;-6.554;2023-09-12T07:18:27;0;0;
40371;PMS5003;28564;53.346;-6.554;2023-09-12T07:20:57;0;0;
40371;PMS5003;28564;53.346;-6.554;2023-09-12T07:23:26;1;1;
40371;PMS5003;28564;53.346;-6.554;2023-09-12T07:25:54;0;0;
40371;PMS5003;28564;53.346;-6.554;2023-09-12T07:28:22;1;0;
40371;PMS5003;28564;53.346;-6.554;2023-09-12T07:30:50;0;0;
40371;PMS5003;28564;53.346;-6.554;2023-09-12T07:33:17;2;1;
40371;PMS5003;28564;53.346;-6.554;2023-09-12T07:35:44;1;1;
40371;PMS5003;28564;53.346;-6.554;2023-09-12T07:38:11;1;1;
40371;PMS5003;28564;53.346;-6.554;2023-09-12T07:40:38;0;0;
40371;PMS5003;28564;53.346;-6.554;2023-09-12T07:43:05;3;1;
40371;PMS5003;28564;53.346;-6.554;2023-09-12T07:45:32;1;1;
40371;PMS5003;28564;53.346;-6.554;2023-09-12T07:47:59;1;1;
40371;PMS5003;28564;53.346;-6.554;2023-09-12T07:50:28;1;1;
40371;PMS5003;28564;53.346;-6.554;2023-09-12T07:52:56;1;1;
40371;PMS5003;28564;53.346;-6.554;2023-09-12T07:55:23;5;5;
40371;PMS5003;28564;53.346;-6.554;2023-09-12T07:57:50;11;9;
40371;PMS5003;28564;53.346;-6.554;2023-09-12T08:00:17;11;11;
40371;PMS5003;28564;53.346;-6.554;2023-09-12T08:02:44;17;17;
40371;PMS5003;28564;53.346;-6.554;2023-09-12T08:05:11;25;25;
40371;PMS5003;28564;53.346;-6.554;2023-09-12T08:07:39;27;27;
40371;PMS5003;28564;53.346;-6.554;2023-09-12T08:10:06;15;15;
40371;PMS5003;28564;53.346;-6.554;2023-09-12T08:12:34;8;8;
40371;PMS5003;28564;53.346;-6.554;2023-09-12T08:15:03;4;4;
40371;PMS5003;28564;53.346;-6.554;2023-09-12T08:17:31;2;2;
40371;PMS5003;28564;53.346;-6.554;2023-09-12T08:19:59;1;1;
40371;PMS5003;28564;53.346;-6.554;2023-09-12T08:22:27;2;1;
40371;PMS5003;28564;53.346;-6.554;2023-09-12T08:24:55;2;2;
40371;PMS5003;28564;53.346;-6.554;2023-09-12T08:27:22;1;1;
40371;PMS5003;28564;53.346;-6.554;2023-09-12T08:29:49;2;1;
40371;PMS5003;28564;53.346;-6.554;2023-09-12T08:32:16;1;1;
40371;PMS5003;28564;53.346;-6.554;2023-09-12T08:34:43;0;0;
40371;PMS5003;28564;53.346;-6.554;2023-09-12T08:37:10;0;0;
40371;PMS5003;28564;53.346;-6.554;2023-09-12T08:39:41;0;0;
40371;PMS5003;28564;53.346;-6.554;2023-09-12T08:42:11;1;0;
40371;PMS5003;28564;53.346;-6.554;2023-09-12T08:44:40;0;0;
40371;PMS5003;28564;53.346;-6.554;2023-09-12T08:47:08;0;0;
40371;PMS5003;28564;53.346;-6.554;2023-09-12T08:49:35;0;0;
40371;PMS5003;28564;53.346;-6.554;2023-09-12T08:52:03;2;1;
40371;PMS5003;28564;53.346;-6.554;2023-09-12T08:54:32;0;0;
40371;PMS5003;28564;53.346;-6.554;2023-09-12T08:57:00;1;0;
40371;PMS5003;28564;53.346;-6.554;2023-09-12T08:59:29;0;0;
40371;PMS5003;28564;53.346;-6.554;2023-09-12T09:01:58;0;0;
40371;PMS5003;28564;53.346;-6.554;2023-09-12T09:04:28;0;0;
40371;PMS5003;28564;53.346;-6.554;2023-09-12T09:06:57;0;0;
40371;PMS5003;28564;53.346;-6.554;2023-09-12T09:09:26;2;0;
40371;PMS5003;28564;53.346;-6.554;2023-09-12T09:11:53;3;1;
40371;PMS5003;28564;53.346;-6.554;2023-09-12T09:14:20;0;0;
40371;PMS5003;28564;53.346;-6.554;2023-09-12T09:16:47;0;0;
40371;PMS5003;28564;53.346;-6.554;2023-09-12T09:19:15;1;1;
40371;PMS5003;28564;53.346;-6.554;2023-09-12T09:21:42;0;0;
40371;PMS5003;28564;53.346;-6.554;2023-09-12T09:24:10;0;0;
40371;PMS5003;28564;53.346;-6.554;2023-09-12T09:26:43;4;1;
40371;PMS5003;28564;53.346;-6.554;2023-09-12T09:29:13;1;0;
40371;PMS5003;28564;53.346;-6.554;2023-09-12T09:31:41;0;0;
40371;PMS5003;28564;53.346;-6.554;2023-09-12T09:34:10;2;2;
40371;PMS5003;28564;53.346;-6.554;2023-09-12T09:36:40;3;3;
40371;PMS5003;28564;53.346;-6.554;2023-09-12T09:39:08;2;2;
40371;PMS5003;28564;53.346;-6.554;2023-09-12T09:41:36;0;0;
40371;PMS5003;28564;53.346;-6.554;2023-09-12T09:44:04;2;1;
40371;PMS5003;28564;53.346;-6.554;2023-09-12T09:46:33;1;1;
40371;PMS5003;28564;53.346;-6.554;2023-09-12T09:49:02;0;0;
40371;PMS5003;28564;53.346;-6.554;2023-09-12T09:51:30;0;0;
40371;PMS5003;28564;53.346;-6.554;2023-09-12T09:53:57;0;0;
40371;PMS5003;28564;53.346;-6.554;2023-09-12T09:56:24;0;0;
40371;PMS5003;28564;53.346;-6.554;2023-09-12T09:58:52;1;1;
40371;PMS5003;28564;53.346;-6.554;2023-09-12T10:01:21;0;0;
40371;PMS5003;28564;53.346;-6.554;2023-09-12T10:03:50;1;0;
40371;PMS5003;28564;53.346;-6.554;2023-09-12T10:06:19;0;0;
40371;PMS5003;28564;53.346;-6.554;2023-09-12T10:08:49;0;0;
40371;PMS5003;28564;53.346;-6.554;2023-09-12T10:11:19;0;0;
40371;PMS5003;28564;53.346;-6.554;2023-09-12T10:13:49;0;0;
40371;PMS5003;28564;53.346;-6.554;2023-09-12T10:16:20;1;1;
40371;PMS5003;28564;53.346;-6.554;2023-09-12T10:18:55;0;0;
40371;PMS5003;28564;53.346;-6.554;2023-09-12T10:21:29;1;0;
40371;PMS5003;28564;53.346;-6.554;2023-09-12T10:23:58;1;1;
40371;PMS5003;28564;53.346;-6.554;2023-09-12T10:26:25;0;0;
40371;PMS5003;28564;53.346;-6.554;2023-09-12T10:28:52;1;1;
40371;PMS5003;28564;53.346;-6.554;2023-09-12T10:31:20;2;2;
40371;PMS5003;28564;53.346;-6.554;2023-09-12T10:33:48;2;0;
40371;PMS5003;28564;53.346;-6.554;2023-09-12T10:36:17;1;1;
40371;PMS5003;28564;53.346;-6.554;2023-09-12T10:38:45;0;0;
40371;PMS5003;28564;53.346;-6.554;2023-09-12T10:41:15;1;1;
40371;PMS5003;28564;53.346;-6.554;2023-09-12T10:43:43;1;1;
40371;PMS5003;28564;53.346;-6.554;2023-09-12T10:46:11;1;1;
40371;PMS5003;28564;53.346;-6.554;2023-09-12T10:48:39;0;0;
40371;PMS5003;28564;53.346;-6.554;2023-09-12T10:51:07;1;1;
40371;PMS5003;28564;53.346;-6.554;2023-09-12T10:53:37;0;0;
40371;PMS5003;28564;53.346;-6.554;2023-09-12T10:56:14;0;0;
40371;PMS5003;28564;53.346;-6.554;2023-09-12T10:59:14;0;0;
40371;PMS5003;28564;53.346;-6.554;2023-09-12T11:01:42;1;1;
40371;PMS5003;28564;53.346;-6.554;2023-09-12T11:04:44;0;0;
40371;PMS5003;28564;53.346;-6.554;2023-09-12T11:07:44;0;0;
40371;PMS5003;28564;53.346;-6.554;2023-09-12T11:10:19;4;0;
40371;PMS5003;28564;53.346;-6.554;2023-09-12T11:12:48;1;0;
40371;PMS5003;28564;53.346;-6.554;2023-09-12T11:15:17;2;0;
40371;PMS5003;28564;53.346;-6.554;2023-09-12T11:17:45;1;0;
40371;PMS5003;28564;53.346;-6.554;2023-09-12T11:20:14;1;0;
40371;PMS5003;28564;53.346;-6.554;2023-09-12T11:22:43;1;1;
40371;PMS5003;28564;53.346;-6.554;2023-09-12T11:25:19;1;1;
40371;PMS5003;28564;53.346;-6.554;2023-09-12T11:28:02;0;0;
40371;PMS5003;28564;53.346;-6.554;2023-09-12T11:30:30;0;0;
40371;PMS5003;28564;53.346;-6.554;2023-09-12T11:32:58;0;0;
40371;PMS5003;28564;53.346;-6.554;2023-09-12T11:35:25;0;0;
40371;PMS5003;28564;53.346;-6.554;2023-09-12T11:37:55;0;0;
40371;PMS5003;28564;53.346;-6.554;2023-09-12T11:40:23;1;0;
40371;PMS5003;28564;53.346;-6.554;2023-09-12T11:42:52;3;2;
40371;PMS5003;28564;53.346;-6.554;2023-09-12T11:45:20;3;1;
40371;PMS5003;28564;53.346;-6.554;2023-09-12T11:47:47;3;0;
40371;PMS5003;28564;53.346;-6.554;2023-09-12T11:50:32;1;1;
40371;PMS5003;28564;53.346;-6.554;2023-09-12T11:53:01;1;1;
40371;PMS5003;28564;53.346;-6.554;2023-09-12T11:55:31;0;0;
40371;PMS5003;28564;53.346;-6.554;2023-09-12T11:58:00;0;0;
40371;PMS5003;28564;53.346;-6.554;2023-09-12T12:00:27;1;0;
40371;PMS5003;28564;53.346;-6.554;2023-09-12T12:02:55;1;1;
40371;PMS5003;28564;53.346;-6.554;2023-09-12T12:05:23;2;1;
40371;PMS5003;28564;53.346;-6.554;2023-09-12T12:07:51;3;1;
40371;PMS5003;28564;53.346;-6.554;2023-09-12T12:10:19;0;0;
40371;PMS5003;28564;53.346;-6.554;2023-09-12T12:12:46;1;1;
40371;PMS5003;28564;53.346;-6.554;2023-09-12T12:15:13;1;1;
40371;PMS5003;28564;53.346;-6.554;2023-09-12T12:17:40;1;1;
40371;PMS5003;28564;53.346;-6.554;2023-09-12T12:20:08;1;1;
40371;PMS5003;28564;53.346;-6.554;2023-09-12T12:22:36;0;0;
40371;PMS5003;28564;53.346;-6.554;2023-09-12T12:25:07;0;0;
40371;PMS5003;28564;53.346;-6.554;2023-09-12T12:27:36;0;0;
40371;PMS5003;28564;53.346;-6.554;2023-09-12T12:30:05;0;0;
40371;PMS5003;28564;53.346;-6.554;2023-09-12T12:32:33;0;0;
40371;PMS5003;28564;53.346;-6.554;2023-09-12T12:35:02;3;1;
40371;PMS5003;28564;53.346;-6.554;2023-09-12T12:37:30;1;1;
40371;PMS5003;28564;53.346;-6.554;2023-09-12T12:39:57;5;5;
40371;PMS5003;28564;53.346;-6.554;2023-09-12T12:42:25;1;1;
40371;PMS5003;28564;53.346;-6.554;2023-09-12T12:44:59;2;2;
40371;PMS5003;28564;53.346;-6.554;2023-09-12T12:47:27;1;1;
40371;PMS5003;28564;53.346;-6.554;2023-09-12T12:49:54;0;0;
40371;PMS5003;28564;53.346;-6.554;2023-09-12T12:52:22;0;0;
40371;PMS5003;28564;53.346;-6.554;2023-09-12T12:54:49;1;1;
40371;PMS5003;28564;53.346;-6.554;2023-09-12T12:57:18;0;0;
40371;PMS5003;28564;53.346;-6.554;2023-09-12T12:59:46;0;0;
40371;PMS5003;28564;53.346;-6.554;2023-09-12T13:02:14;0;0;
40371;PMS5003;28564;53.346;-6.554;2023-09-12T13:04:42;0;0;
40371;PMS5003;28564;53.346;-6.554;2023-09-12T13:07:10;0;0;
40371;PMS5003;28564;53.346;-6.554;2023-09-12T13:09:38;1;1;
40371;PMS5003;28564;53.346;-6.554;2023-09-12T13:12:06;3;0;
40371;PMS5003;28564;53.346;-6.554;2023-09-12T13:14:33;0;0;
40371;PMS5003;28564;53.346;-6.554;2023-09-12T13:17:00;0;0;
40371;PMS5003;28564;53.346;-6.554;2023-09-12T13:19:28;1;1;
40371;PMS5003;28564;53.346;-6.554;2023-09-12T13:21:55;1;1;
40371;PMS5003;28564;53.346;-6.554;2023-09-12T13:24:23;3;1;
40371;PMS5003;28564;53.346;-6.554;2023-09-12T13:26:51;2;0;
40371;PMS5003;28564;53.346;-6.554;2023-09-12T13:29:19;0;0;
40371;PMS5003;28564;53.346;-6.554;2023-09-12T13:31:46;0;0;
40371;PMS5003;28564;53.346;-6.554;2023-09-12T13:34:13;0;0;
40371;PMS5003;28564;53.346;-6.554;2023-09-12T13:36:41;1;1;
40371;PMS5003;28564;53.346;-6.554;2023-09-12T13:39:08;1;1;
40371;PMS5003;28564;53.346;-6.554;2023-09-12T13:41:36;0;0;
40371;PMS5003;28564;53.346;-6.554;2023-09-12T13:44:03;1;1;
40371;PMS5003;28564;53.346;-6.554;2023-09-12T13:46:31;0;0;
40371;PMS5003;28564;53.346;-6.554;2023-09-12T13:48:58;0;0;
40371;PMS5003;28564;53.346;-6.554;2023-09-12T13:51:26;0;0;
40371;PMS5003;28564;53.346;-6.554;2023-09-12T13:53:53;0;0;
40371;PMS5003;28564;53.346;-6.554;2023-09-12T13:56:20;0;0;
40371;PMS5003;28564;53.346;-6.554;2023-09-12T13:58:48;0;0;
40371;PMS5003;28564;53.346;-6.554;2023-09-12T14:01:17;0;0;
40371;PMS5003;28564;53.346;-6.554;2023-09-12T14:03:44;0;0;
40371;PMS5003;28564;53.346;-6.554;2023-09-12T14:06:12;0;0;
40371;PMS5003;28564;53.346;-6.554;2023-09-12T14:08:39;0;0;
40371;PMS5003;28564;53.346;-6.554;2023-09-12T14:11:06;0;0;
40371;PMS5003;28564;53.346;-6.554;2023-09-12T14:13:34;3;1;
40371;PMS5003;28564;53.346;-6.554;2023-09-12T14:16:01;0;0;
40371;PMS5003;28564;53.346;-6.554;2023-09-12T14:18:29;1;1;
40371;PMS5003;28564;53.346;-6.554;2023-09-12T14:20:56;1;1;
40371;PMS5003;28564;53.346;-6.554;2023-09-12T14:23:24;3;1;
40371;PMS5003;28564;53.346;-6.554;2023-09-12T14:25:51;1;0;
40371;PMS5003;28564;53.346;-6.554;2023-09-12T14:28:19;1;1;
40371;PMS5003;28564;53.346;-6.554;2023-09-12T14:30:46;1;1;
40371;PMS5003;28564;53.346;-6.554;2023-09-12T14:33:14;1;1;
40371;PMS5003;28564;53.346;-6.554;2023-09-12T14:35:41;2;2;
40371;PMS5003;28564;53.346;-6.554;2023-09-12T14:38:10;1;1;
40371;PMS5003;28564;53.346;-6.554;2023-09-12T14:40:37;1;1;
40371;PMS5003;28564;53.346;-6.554;2023-09-12T14:43:04;0;0;
40371;PMS5003;28564;53.346;-6.554;2023-09-12T14:45:33;0;0;
40371;PMS5003;28564;53.346;-6.554;2023-09-12T14:48:00;0;0;
40371;PMS5003;28564;53.346;-6.554;2023-09-12T14:50:28;1;1;
40371;PMS5003;28564;53.346;-6.554;2023-09-12T14:52:55;0;0;
40371;PMS5003;28564;53.346;-6.554;2023-09-12T14:55:23;1;1;
40371;PMS5003;28564;53.346;-6.554;2023-09-12T14:57:50;0;0;
40371;PMS5003;28564;53.346;-6.554;2023-09-12T15:00:18;0;0;
40371;PMS5003;28564;53.346;-6.554;2023-09-12T15:02:45;1;1;
40371;PMS5003;28564;53.346;-6.554;2023-09-12T15:05:13;0;0;
40371;PMS5003;28564;53.346;-6.554;2023-09-12T15:07:40;0;0;
40371;PMS5003;28564;53.346;-6.554;2023-09-12T15:10:08;0;0;
40371;PMS5003;28564;53.346;-6.554;2023-09-12T15:12:36;2;1;
40371;PMS5003;28564;53.346;-6.554;2023-09-12T15:15:04;1;1;
40371;PMS5003;28564;53.346;-6.554;2023-09-12T15:17:32;0;0;
40371;PMS5003;28564;53.346;-6.554;2023-09-12T15:19:59;2;1;
40371;PMS5003;28564;53.346;-6.554;2023-09-12T15:22:27;0;0;
40371;PMS5003;28564;53.346;-6.554;2023-09-12T15:24:54;0;0;
40371;PMS5003;28564;53.346;-6.554;2023-09-12T15:27:22;1;1;
40371;PMS5003;28564;53.346;-6.554;2023-09-12T15:29:49;1;1;
40371;PMS5003;28564;53.346;-6.554;2023-09-12T15:32:17;1;1;
40371;PMS5003;28564;53.346;-6.554;2023-09-12T15:34:44;0;0;
40371;PMS5003;28564;53.346;-6.554;2023-09-12T15:37:13;1;0;
40371;PMS5003;28564;53.346;-6.554;2023-09-12T15:39:40;3;1;
40371;PMS5003;28564;53.346;-6.554;2023-09-12T15:42:08;1;1;
40371;PMS5003;28564;53.346;-6.554;2023-09-12T15:44:35;2;1;
40371;PMS5003;28564;53.346;-6.554;2023-09-12T15:47:03;2;2;
40371;PMS5003;28564;53.346;-6.554;2023-09-12T15:49:33;1;1;
40371;PMS5003;28564;53.346;-6.554;2023-09-12T15:52:01;3;1;
40371;PMS5003;28564;53.346;-6.554;2023-09-12T15:54:29;2;1;
40371;PMS5003;28564;53.346;-6.554;2023-09-12T15:56:56;3;1;
40371;PMS5003;28564;53.346;-6.554;2023-09-12T15:59:24;3;3;
40371;PMS5003;28564;53.346;-6.554;2023-09-12T16:01:52;4;3;
40371;PMS5003;28564;53.346;-6.554;2023-09-12T16:04:19;1;1;
40371;PMS5003;28564;53.346;-6.554;2023-09-12T16:06:46;1;1;
40371;PMS5003;28564;53.346;-6.554;2023-09-12T16:09:14;2;1;
40371;PMS5003;28564;53.346;-6.554;2023-09-12T16:11:40;2;2;
40371;PMS5003;28564;53.346;-6.554;2023-09-12T16:14:08;1;1;
40371;PMS5003;28564;53.346;-6.554;2023-09-12T16:16:36;3;3;
40371;PMS5003;28564;53.346;-6.554;2023-09-12T16:19:04;2;2;
40371;PMS5003;28564;53.346;-6.554;2023-09-12T16:21:31;4;1;
40371;PMS5003;28564;53.346;-6.554;2023-09-12T16:23:59;1;1;
40371;PMS5003;28564;53.346;-6.554;2023-09-12T16:26:26;2;2;
40371;PMS5003;28564;53.346;-6.554;2023-09-12T16:28:53;0;0;
40371;PMS5003;28564;53.346;-6.554;2023-09-12T16:31:20;1;1;
40371;PMS5003;28564;53.346;-6.554;2023-09-12T16:33:47;2;1;
40371;PMS5003;28564;53.346;-6.554;2023-09-12T16:36:14;1;1;
40371;PMS5003;28564;53.346;-6.554;2023-09-12T16:38:41;1;1;